sensor_id;sensor_type;location;lat;lon;timestamp;temperature;humidity
37998;DHT22;24079;51.824;4.682;2023-03-05T00:01:19;5.40;99.90
37998;DHT22;24079;51.824;4.682;2023-03-05T00:03:47;5.50;99.90
37998;DHT22;24079;51.824;4.682;2023-03-05T00:06:14;5.50;99.90
37998;DHT22;24079;51.824;4.682;2023-03-05T00:08:42;5.50;99.90
37998;DHT22;24079;51.824;4.682;2023-03-05T00:11:09;5.50;99.90
37998;DHT22;24079;51.824;4.682;2023-03-05T00:13:37;5.50;99.90
37998;DHT22;24079;51.824;4.682;2023-03-05T00:16:04;5.40;99.90
37998;DHT22;24079;51.824;4.682;2023-03-05T00:18:30;5.40;99.90
37998;DHT22;24079;51.824;4.682;2023-03-05T00:20:57;5.40;99.90
37998;DHT22;24079;51.824;4.682;2023-03-05T00:23:23;5.40;99.90
37998;DHT22;24079;51.824;4.682;2023-03-05T00:25:49;5.30;99.90
37998;DHT22;24079;51.824;4.682;2023-03-05T00:28:16;5.30;99.90
37998;DHT22;24079;51.824;4.682;2023-03-05T00:30:42;5.20;99.90
37998;DHT22;24079;51.824;4.682;2023-03-05T00:33:10;5.20;99.90
37998;DHT22;24079;51.824;4.682;2023-03-05T00:35:42;5.20;99.90
37998;DHT22;24079;51.824;4.682;2023-03-05T00:38:09;5.10;99.90
37998;DHT22;24079;51.824;4.682;2023-03-05T00:40:39;5.10;99.90
37998;DHT22;24079;51.824;4.682;2023-03-05T00:43:06;5.10;99.90
37998;DHT22;24079;51.824;4.682;2023-03-05T00:45:33;5.10;99.90
37998;DHT22;24079;51.824;4.682;2023-03-05T00:47:59;5.10;99.90
37998;DHT22;24079;51.824;4.682;2023-03-05T00:50:26;5.10;99.90
37998;DHT22;24079;51.824;4.682;2023-03-05T00:52:52;5.00;99.90
37998;DHT22;24079;51.824;4.682;2023-03-05T00:55:18;5.00;99.90
37998;DHT22;24079;51.824;4.682;2023-03-05T00:57:44;4.90;99.90
37998;DHT22;24079;51.824;4.682;2023-03-05T01:00:12;4.90;99.90
37998;DHT22;24079;51.824;4.682;2023-03-05T01:02:38;4.90;99.90
37998;DHT22;24079;51.824;4.682;2023-03-05T01:05:05;4.90;99.90
37998;DHT22;24079;51.824;4.682;2023-03-05T01:07:31;4.80;99.90
37998;DHT22;24079;51.824;4.682;2023-03-05T01:09:57;4.80;99.90
37998;DHT22;24079;51.824;4.682;2023-03-05T01:12:23;4.80;99.90
37998;DHT22;24079;51.824;4.682;2023-03-05T01:14:49;4.80;99.90
37998;DHT22;24079;51.824;4.682;2023-03-05T01:17:14;4.90;99.90
37998;DHT22;24079;51.824;4.682;2023-03-05T01:19:40;4.90;99.90
37998;DHT22;24079;51.824;4.682;2023-03-05T01:22:05;5.00;99.90
37998;DHT22;24079;51.824;4.682;2023-03-05T01:24:31;5.00;99.90
37998;DHT22;24079;51.824;4.682;2023-03-05T01:26:57;5.00;99.90
37998;DHT22;24079;51.824;4.682;2023-03-05T01:29:23;5.00;99.90
37998;DHT22;24079;51.824;4.682;2023-03-05T01:31:48;5.10;99.90
37998;DHT22;24079;51.824;4.682;2023-03-05T01:34:14;5.10;99.90
37998;DHT22;24079;51.824;4.682;2023-03-05T01:36:43;5.10;99.90
37998;DHT22;24079;51.824;4.682;2023-03-05T01:39:09;5.10;99.90
37998;DHT22;24079;51.824;4.682;2023-03-05T01:41:34;5.10;99.90
37998;DHT22;24079;51.824;4.682;2023-03-05T01:44:00;5.20;99.90
37998;DHT22;24079;51.824;4.682;2023-03-05T01:46:36;5.20;99.90
37998;DHT22;24079;51.824;4.682;2023-03-05T01:49:07;5.20;99.90
37998;DHT22;24079;51.824;4.682;2023-03-05T01:54:14;5.30;99.90
37998;DHT22;24079;51.824;4.682;2023-03-05T01:56:40;5.30;99.90
37998;DHT22;24079;51.824;4.682;2023-03-05T01:59:06;5.30;99.90
37998;DHT22;24079;51.824;4.682;2023-03-05T02:01:38;5.30;99.90
37998;DHT22;24079;51.824;4.682;2023-03-05T02:04:06;5.30;99.90
37998;DHT22;24079;51.824;4.682;2023-03-05T02:06:32;5.30;99.90
37998;DHT22;24079;51.824;4.682;2023-03-05T02:08:59;5.30;99.90
37998;DHT22;24079;51.824;4.682;2023-03-05T02:11:24;5.30;99.90
37998;DHT22;24079;51.824;4.682;2023-03-05T02:13:50;5.30;99.90
37998;DHT22;24079;51.824;4.682;2023-03-05T02:16:16;5.30;99.90
37998;DHT22;24079;51.824;4.682;2023-03-05T02:18:42;5.30;99.90
37998;DHT22;24079;51.824;4.682;2023-03-05T02:21:08;5.30;99.90
37998;DHT22;24079;51.824;4.682;2023-03-05T02:23:36;5.30;99.90
37998;DHT22;24079;51.824;4.682;2023-03-05T02:26:04;5.30;99.90
37998;DHT22;24079;51.824;4.682;2023-03-05T02:31:12;5.40;99.90
37998;DHT22;24079;51.824;4.682;2023-03-05T02:33:37;5.40;99.90
37998;DHT22;24079;51.824;4.682;2023-03-05T02:36:03;5.40;99.90
37998;DHT22;24079;51.824;4.682;2023-03-05T02:38:29;5.40;99.90
37998;DHT22;24079;51.824;4.682;2023-03-05T02:40:55;5.40;99.90
37998;DHT22;24079;51.824;4.682;2023-03-05T02:43:20;5.30;99.90
37998;DHT22;24079;51.824;4.682;2023-03-05T02:45:46;5.20;99.90
37998;DHT22;24079;51.824;4.682;2023-03-05T02:48:11;5.20;99.90
37998;DHT22;24079;51.824;4.682;2023-03-05T02:50:37;5.20;99.90
37998;DHT22;24079;51.824;4.682;2023-03-05T02:53:04;5.20;99.90
37998;DHT22;24079;51.824;4.682;2023-03-05T02:55:30;5.30;99.90
37998;DHT22;24079;51.824;4.682;2023-03-05T02:57:56;5.10;99.90
37998;DHT22;24079;51.824;4.682;2023-03-05T03:00:22;5.00;99.90
37998;DHT22;24079;51.824;4.682;2023-03-05T03:02:47;4.90;99.90
37998;DHT22;24079;51.824;4.682;2023-03-05T03:05:13;4.90;99.90
37998;DHT22;24079;51.824;4.682;2023-03-05T03:07:38;5.00;99.90
37998;DHT22;24079;51.824;4.682;2023-03-05T03:10:05;5.00;99.90
37998;DHT22;24079;51.824;4.682;2023-03-05T03:12:30;4.90;99.90
37998;DHT22;24079;51.824;4.682;2023-03-05T03:14:56;4.90;99.90
37998;DHT22;24079;51.824;4.682;2023-03-05T03:17:22;4.90;99.90
37998;DHT22;24079;51.824;4.682;2023-03-05T03:19:47;4.90;99.90
37998;DHT22;24079;51.824;4.682;2023-03-05T03:22:14;4.90;99.90
37998;DHT22;24079;51.824;4.682;2023-03-05T03:24:41;4.90;99.90
37998;DHT22;24079;51.824;4.682;2023-03-05T03:27:08;4.90;99.90
37998;DHT22;24079;51.824;4.682;2023-03-05T03:29:33;4.90;99.90
37998;DHT22;24079;51.824;4.682;2023-03-05T03:31:59;4.90;99.90
37998;DHT22;24079;51.824;4.682;2023-03-05T03:34:25;4.90;99.90
37998;DHT22;24079;51.824;4.682;2023-03-05T03:36:51;4.90;99.90
37998;DHT22;24079;51.824;4.682;2023-03-05T03:39:17;4.90;99.90
37998;DHT22;24079;51.824;4.682;2023-03-05T03:41:45;5.00;99.90
37998;DHT22;24079;51.824;4.682;2023-03-05T03:44:12;5.00;99.90
37998;DHT22;24079;51.824;4.682;2023-03-05T03:46:38;5.00;99.90
37998;DHT22;24079;51.824;4.682;2023-03-05T03:49:05;5.00;99.90
37998;DHT22;24079;51.824;4.682;2023-03-05T03:51:30;4.90;99.90
37998;DHT22;24079;51.824;4.682;2023-03-05T03:53:56;5.00;99.90
37998;DHT22;24079;51.824;4.682;2023-03-05T03:56:22;5.00;99.90
37998;DHT22;24079;51.824;4.682;2023-03-05T03:58:51;5.00;99.90
37998;DHT22;24079;51.824;4.682;2023-03-05T04:01:18;5.20;99.90
37998;DHT22;24079;51.824;4.682;2023-03-05T04:03:43;5.20;99.90
37998;DHT22;24079;51.824;4.682;2023-03-05T04:06:09;5.20;99.90
37998;DHT22;24079;51.824;4.682;2023-03-05T04:08:35;5.10;99.90
37998;DHT22;24079;51.824;4.682;2023-03-05T04:11:01;5.10;99.90
37998;DHT22;24079;51.824;4.682;2023-03-05T04:13:27;5.10;99.90
37998;DHT22;24079;51.824;4.682;2023-03-05T04:15:53;5.10;99.90
37998;DHT22;24079;51.824;4.682;2023-03-05T04:18:20;5.00;99.90
37998;DHT22;24079;51.824;4.682;2023-03-05T04:20:46;5.10;99.90
37998;DHT22;24079;51.824;4.682;2023-03-05T04:23:13;5.10;99.90
37998;DHT22;24079;51.824;4.682;2023-03-05T04:25:39;5.10;99.90
37998;DHT22;24079;51.824;4.682;2023-03-05T04:28:05;5.10;99.90
37998;DHT22;24079;51.824;4.682;2023-03-05T04:30:31;5.00;99.90
37998;DHT22;24079;51.824;4.682;2023-03-05T04:32:57;5.00;99.90
37998;DHT22;24079;51.824;4.682;2023-03-05T04:35:23;5.00;99.90
37998;DHT22;24079;51.824;4.682;2023-03-05T04:37:49;4.90;99.90
37998;DHT22;24079;51.824;4.682;2023-03-05T04:40:15;4.90;99.90
37998;DHT22;24079;51.824;4.682;2023-03-05T04:42:41;4.90;99.90
37998;DHT22;24079;51.824;4.682;2023-03-05T04:45:07;4.90;99.90
37998;DHT22;24079;51.824;4.682;2023-03-05T04:47:33;4.90;99.90
37998;DHT22;24079;51.824;4.682;2023-03-05T04:49:59;4.90;99.90
37998;DHT22;24079;51.824;4.682;2023-03-05T04:52:25;4.90;99.90
37998;DHT22;24079;51.824;4.682;2023-03-05T04:54:50;4.90;99.90
37998;DHT22;24079;51.824;4.682;2023-03-05T04:57:16;4.80;99.90
37998;DHT22;24079;51.824;4.682;2023-03-05T04:59:42;4.80;99.90
37998;DHT22;24079;51.824;4.682;2023-03-05T05:02:08;4.80;99.90
37998;DHT22;24079;51.824;4.682;2023-03-05T05:04:33;4.80;99.90
37998;DHT22;24079;51.824;4.682;2023-03-05T05:07:01;4.80;99.90
37998;DHT22;24079;51.824;4.682;2023-03-05T05:09:26;4.80;99.90
37998;DHT22;24079;51.824;4.682;2023-03-05T05:11:52;4.80;99.90
37998;DHT22;24079;51.824;4.682;2023-03-05T05:14:18;4.80;99.90
37998;DHT22;24079;51.824;4.682;2023-03-05T05:16:44;4.80;99.90
37998;DHT22;24079;51.824;4.682;2023-03-05T05:19:10;4.70;99.90
37998;DHT22;24079;51.824;4.682;2023-03-05T05:21:35;4.70;99.90
37998;DHT22;24079;51.824;4.682;2023-03-05T05:24:01;4.70;99.90
37998;DHT22;24079;51.824;4.682;2023-03-05T05:26:26;4.70;99.90
37998;DHT22;24079;51.824;4.682;2023-03-05T05:28:52;4.60;99.90
37998;DHT22;24079;51.824;4.682;2023-03-05T05:31:18;4.60;99.90
37998;DHT22;24079;51.824;4.682;2023-03-05T05:33:44;4.60;99.90
37998;DHT22;24079;51.824;4.682;2023-03-05T05:36:14;4.60;99.90
37998;DHT22;24079;51.824;4.682;2023-03-05T05:38:40;4.50;99.90
37998;DHT22;24079;51.824;4.682;2023-03-05T05:41:08;4.60;99.90
37998;DHT22;24079;51.824;4.682;2023-03-05T05:43:34;4.50;99.90
37998;DHT22;24079;51.824;4.682;2023-03-05T05:46:08;4.50;99.90
37998;DHT22;24079;51.824;4.682;2023-03-05T05:48:35;4.50;99.90
37998;DHT22;24079;51.824;4.682;2023-03-05T05:51:07;4.50;99.90
37998;DHT22;24079;51.824;4.682;2023-03-05T05:53:33;4.40;99.90
37998;DHT22;24079;51.824;4.682;2023-03-05T05:55:59;4.40;99.90
37998;DHT22;24079;51.824;4.682;2023-03-05T05:58:24;4.40;99.90
37998;DHT22;24079;51.824;4.682;2023-03-05T06:00:50;4.40;99.90
37998;DHT22;24079;51.824;4.682;2023-03-05T06:03:15;4.40;99.90
37998;DHT22;24079;51.824;4.682;2023-03-05T06:05:42;4.40;99.90
37998;DHT22;24079;51.824;4.682;2023-03-05T06:08:08;4.40;99.90
37998;DHT22;24079;51.824;4.682;2023-03-05T06:10:34;4.40;99.90
37998;DHT22;24079;51.824;4.682;2023-03-05T06:12:59;4.40;99.90
37998;DHT22;24079;51.824;4.682;2023-03-05T06:15:25;4.40;99.90
37998;DHT22;24079;51.824;4.682;2023-03-05T06:17:50;4.40;99.90
37998;DHT22;24079;51.824;4.682;2023-03-05T06:20:17;4.40;99.90
37998;DHT22;24079;51.824;4.682;2023-03-05T06:22:43;4.40;99.90
37998;DHT22;24079;51.824;4.682;2023-03-05T06:25:09;4.40;99.90
37998;DHT22;24079;51.824;4.682;2023-03-05T06:27:35;4.40;99.90
37998;DHT22;24079;51.824;4.682;2023-03-05T06:30:04;4.50;99.90
37998;DHT22;24079;51.824;4.682;2023-03-05T06:32:30;4.50;99.90
37998;DHT22;24079;51.824;4.682;2023-03-05T06:34:56;4.50;99.90
37998;DHT22;24079;51.824;4.682;2023-03-05T06:37:21;4.50;99.90
37998;DHT22;24079;51.824;4.682;2023-03-05T06:39:47;4.50;99.90
37998;DHT22;24079;51.824;4.682;2023-03-05T06:42:13;4.50;99.90
37998;DHT22;24079;51.824;4.682;2023-03-05T06:44:39;4.50;99.90
37998;DHT22;24079;51.824;4.682;2023-03-05T06:47:09;4.60;99.90
37998;DHT22;24079;51.824;4.682;2023-03-05T06:49:39;4.60;99.90
37998;DHT22;24079;51.824;4.682;2023-03-05T06:52:06;4.70;99.90
37998;DHT22;24079;51.824;4.682;2023-03-05T06:54:34;4.70;99.90
37998;DHT22;24079;51.824;4.682;2023-03-05T06:56:59;4.80;99.90
37998;DHT22;24079;51.824;4.682;2023-03-05T06:59:25;4.90;99.90
37998;DHT22;24079;51.824;4.682;2023-03-05T07:01:51;4.90;99.90
37998;DHT22;24079;51.824;4.682;2023-03-05T07:04:16;5.00;99.90
37998;DHT22;24079;51.824;4.682;2023-03-05T07:06:42;5.00;99.90
37998;DHT22;24079;51.824;4.682;2023-03-05T07:09:14;5.10;99.90
37998;DHT22;24079;51.824;4.682;2023-03-05T07:11:40;5.00;99.90
37998;DHT22;24079;51.824;4.682;2023-03-05T07:14:05;5.10;99.90
37998;DHT22;24079;51.824;4.682;2023-03-05T07:16:33;5.10;99.90
37998;DHT22;24079;51.824;4.682;2023-03-05T07:19:00;5.20;99.90
37998;DHT22;24079;51.824;4.682;2023-03-05T07:21:29;5.20;99.90
37998;DHT22;24079;51.824;4.682;2023-03-05T07:23:56;5.30;99.90
37998;DHT22;24079;51.824;4.682;2023-03-05T07:26:23;5.40;99.90
37998;DHT22;24079;51.824;4.682;2023-03-05T07:28:49;5.40;99.90
37998;DHT22;24079;51.824;4.682;2023-03-05T07:31:17;5.40;99.90
37998;DHT22;24079;51.824;4.682;2023-03-05T07:33:47;5.60;99.90
37998;DHT22;24079;51.824;4.682;2023-03-05T07:36:14;5.50;99.90
37998;DHT22;24079;51.824;4.682;2023-03-05T07:38:40;5.50;99.90
37998;DHT22;24079;51.824;4.682;2023-03-05T07:41:08;5.60;99.90
37998;DHT22;24079;51.824;4.682;2023-03-05T07:43:34;5.60;99.90
37998;DHT22;24079;51.824;4.682;2023-03-05T07:46:10;5.70;99.90
37998;DHT22;24079;51.824;4.682;2023-03-05T07:48:36;5.80;99.90
37998;DHT22;24079;51.824;4.682;2023-03-05T07:51:13;5.90;99.90
37998;DHT22;24079;51.824;4.682;2023-03-05T07:53:41;6.00;99.90
37998;DHT22;24079;51.824;4.682;2023-03-05T07:56:07;6.20;99.90
37998;DHT22;24079;51.824;4.682;2023-03-05T07:58:32;6.30;99.90
37998;DHT22;24079;51.824;4.682;2023-03-05T08:00:58;6.40;99.90
37998;DHT22;24079;51.824;4.682;2023-03-05T08:03:24;6.50;99.90
37998;DHT22;24079;51.824;4.682;2023-03-05T08:05:49;6.50;99.90
37998;DHT22;24079;51.824;4.682;2023-03-05T08:08:15;6.60;99.90
37998;DHT22;24079;51.824;4.682;2023-03-05T08:10:41;6.70;99.90
37998;DHT22;24079;51.824;4.682;2023-03-05T08:13:07;6.80;99.90
37998;DHT22;24079;51.824;4.682;2023-03-05T08:15:32;6.80;99.90
37998;DHT22;24079;51.824;4.682;2023-03-05T08:17:58;6.70;99.90
37998;DHT22;24079;51.824;4.682;2023-03-05T08:20:24;6.80;99.90
37998;DHT22;24079;51.824;4.682;2023-03-05T08:22:50;6.60;99.90
37998;DHT22;24079;51.824;4.682;2023-03-05T08:25:16;6.60;99.90
37998;DHT22;24079;51.824;4.682;2023-03-05T08:27:43;6.70;99.90
37998;DHT22;24079;51.824;4.682;2023-03-05T08:30:18;6.60;99.90
37998;DHT22;24079;51.824;4.682;2023-03-05T08:32:48;6.50;99.90
37998;DHT22;24079;51.824;4.682;2023-03-05T08:35:14;6.30;99.90
37998;DHT22;24079;51.824;4.682;2023-03-05T08:37:40;6.10;99.90
37998;DHT22;24079;51.824;4.682;2023-03-05T08:40:07;6.20;99.90
37998;DHT22;24079;51.824;4.682;2023-03-05T08:42:33;6.30;99.90
37998;DHT22;24079;51.824;4.682;2023-03-05T08:44:59;6.40;99.90
37998;DHT22;24079;51.824;4.682;2023-03-05T08:47:25;6.50;99.90
37998;DHT22;24079;51.824;4.682;2023-03-05T08:49:52;6.50;99.90
37998;DHT22;24079;51.824;4.682;2023-03-05T08:52:21;6.50;99.90
37998;DHT22;24079;51.824;4.682;2023-03-05T08:54:47;6.50;99.90
37998;DHT22;24079;51.824;4.682;2023-03-05T08:57:13;6.60;99.90
37998;DHT22;24079;51.824;4.682;2023-03-05T08:59:39;6.60;99.90
37998;DHT22;24079;51.824;4.682;2023-03-05T09:02:06;6.70;99.90
37998;DHT22;24079;51.824;4.682;2023-03-05T09:04:32;6.60;99.90
37998;DHT22;24079;51.824;4.682;2023-03-05T09:06:58;6.50;99.90
37998;DHT22;24079;51.824;4.682;2023-03-05T09:09:24;6.40;99.90
37998;DHT22;24079;51.824;4.682;2023-03-05T09:11:51;6.50;99.90
37998;DHT22;24079;51.824;4.682;2023-03-05T09:14:17;6.60;99.90
37998;DHT22;24079;51.824;4.682;2023-03-05T09:16:43;6.50;99.90
37998;DHT22;24079;51.824;4.682;2023-03-05T09:19:09;6.60;99.90
37998;DHT22;24079;51.824;4.682;2023-03-05T09:21:37;6.80;99.90
37998;DHT22;24079;51.824;4.682;2023-03-05T09:24:03;7.10;99.90
37998;DHT22;24079;51.824;4.682;2023-03-05T09:26:29;7.00;99.90
37998;DHT22;24079;51.824;4.682;2023-03-05T09:28:56;7.20;99.90
37998;DHT22;24079;51.824;4.682;2023-03-05T09:31:22;7.50;99.90
37998;DHT22;24079;51.824;4.682;2023-03-05T09:33:49;7.60;99.90
37998;DHT22;24079;51.824;4.682;2023-03-05T09:36:21;7.50;99.90
37998;DHT22;24079;51.824;4.682;2023-03-05T09:38:48;7.40;99.90
37998;DHT22;24079;51.824;4.682;2023-03-05T09:41:32;7.20;99.90
37998;DHT22;24079;51.824;4.682;2023-03-05T09:44:21;7.40;99.90
37998;DHT22;24079;51.824;4.682;2023-03-05T09:52:04;7.70;99.90
37998;DHT22;24079;51.824;4.682;2023-03-05T09:54:43;8.00;99.90
37998;DHT22;24079;51.824;4.682;2023-03-05T09:57:17;8.10;99.90
37998;DHT22;24079;51.824;4.682;2023-03-05T09:59:55;8.30;99.90
37998;DHT22;24079;51.824;4.682;2023-03-05T10:02:26;8.20;99.90
37998;DHT22;24079;51.824;4.682;2023-03-05T10:04:56;8.30;99.90
37998;DHT22;24079;51.824;4.682;2023-03-05T10:07:33;8.20;99.90
37998;DHT22;24079;51.824;4.682;2023-03-05T10:10:08;8.10;99.90
37998;DHT22;24079;51.824;4.682;2023-03-05T10:12:44;7.90;99.90
37998;DHT22;24079;51.824;4.682;2023-03-05T10:15:17;7.70;99.90
37998;DHT22;24079;51.824;4.682;2023-03-05T10:23:07;6.60;99.90
37998;DHT22;24079;51.824;4.682;2023-03-05T10:25:57;6.60;99.90
37998;DHT22;24079;51.824;4.682;2023-03-05T10:28:28;6.40;99.90
37998;DHT22;24079;51.824;4.682;2023-03-05T10:34:00;6.60;99.90
37998;DHT22;24079;51.824;4.682;2023-03-05T10:39:45;6.90;99.90
37998;DHT22;24079;51.824;4.682;2023-03-05T10:45:20;7.00;99.90
37998;DHT22;24079;51.824;4.682;2023-03-05T10:48:44;6.90;99.90
37998;DHT22;24079;51.824;4.682;2023-03-05T10:50:55;7.10;99.90
37998;DHT22;24079;51.824;4.682;2023-03-05T10:53:31;7.30;99.90
37998;DHT22;24079;51.824;4.682;2023-03-05T10:56:03;7.50;99.90
37998;DHT22;24079;51.824;4.682;2023-03-05T10:58:29;7.70;99.90
37998;DHT22;24079;51.824;4.682;2023-03-05T11:01:01;8.10;99.90
37998;DHT22;24079;51.824;4.682;2023-03-05T11:04:07;8.20;99.90
37998;DHT22;24079;51.824;4.682;2023-03-05T11:06:41;8.60;99.90
37998;DHT22;24079;51.824;4.682;2023-03-05T11:14:35;8.60;99.90
37998;DHT22;24079;51.824;4.682;2023-03-05T11:17:24;8.60;99.90
37998;DHT22;24079;51.824;4.682;2023-03-05T11:19:50;8.90;99.90
37998;DHT22;24079;51.824;4.682;2023-03-05T11:22:18;8.90;99.90
37998;DHT22;24079;51.824;4.682;2023-03-05T11:27:37;8.50;99.90
37998;DHT22;24079;51.824;4.682;2023-03-05T11:30:30;9.10;99.90
37998;DHT22;24079;51.824;4.682;2023-03-05T11:33:16;9.10;99.90
37998;DHT22;24079;51.824;4.682;2023-03-05T11:35:46;9.50;99.90
37998;DHT22;24079;51.824;4.682;2023-03-05T11:38:19;9.60;99.90
37998;DHT22;24079;51.824;4.682;2023-03-05T11:40:46;9.80;99.90
37998;DHT22;24079;51.824;4.682;2023-03-05T11:43:18;9.70;99.90
37998;DHT22;24079;51.824;4.682;2023-03-05T11:45:48;9.40;99.90
37998;DHT22;24079;51.824;4.682;2023-03-05T11:50:48;9.40;99.90
37998;DHT22;24079;51.824;4.682;2023-03-05T11:53:28;9.50;99.90
37998;DHT22;24079;51.824;4.682;2023-03-05T12:01:07;9.10;99.90
37998;DHT22;24079;51.824;4.682;2023-03-05T12:03:39;9.20;99.90
37998;DHT22;24079;51.824;4.682;2023-03-05T12:06:08;9.40;99.90
37998;DHT22;24079;51.824;4.682;2023-03-05T12:08:39;9.50;99.90
37998;DHT22;24079;51.824;4.682;2023-03-05T12:11:19;9.70;99.90
37998;DHT22;24079;51.824;4.682;2023-03-05T12:13:58;9.80;99.90
37998;DHT22;24079;51.824;4.682;2023-03-05T12:16:41;9.80;99.90
37998;DHT22;24079;51.824;4.682;2023-03-05T12:21:49;9.60;99.90
37998;DHT22;24079;51.824;4.682;2023-03-05T12:31:59;9.30;99.90
37998;DHT22;24079;51.824;4.682;2023-03-05T12:34:45;9.00;99.90
37998;DHT22;24079;51.824;4.682;2023-03-05T12:40:02;8.90;99.90
37998;DHT22;24079;51.824;4.682;2023-03-05T12:42:51;8.80;99.90
37998;DHT22;24079;51.824;4.682;2023-03-05T12:47:46;8.60;99.90
37998;DHT22;24079;51.824;4.682;2023-03-05T12:53:08;8.40;99.90
37998;DHT22;24079;51.824;4.682;2023-03-05T13:01:12;8.30;99.90
37998;DHT22;24079;51.824;4.682;2023-03-05T13:03:50;8.30;99.90
37998;DHT22;24079;51.824;4.682;2023-03-05T13:11:51;8.30;99.90
37998;DHT22;24079;51.824;4.682;2023-03-05T13:14:27;8.30;99.90
37998;DHT22;24079;51.824;4.682;2023-03-05T13:16:54;8.20;99.90
37998;DHT22;24079;51.824;4.682;2023-03-05T13:19:20;8.30;99.90
37998;DHT22;24079;51.824;4.682;2023-03-05T13:21:57;8.20;99.90
37998;DHT22;24079;51.824;4.682;2023-03-05T13:24:23;8.10;99.90
37998;DHT22;24079;51.824;4.682;2023-03-05T13:26:49;8.00;99.90
37998;DHT22;24079;51.824;4.682;2023-03-05T13:29:20;8.20;99.90
37998;DHT22;24079;51.824;4.682;2023-03-05T13:31:51;8.40;99.90
37998;DHT22;24079;51.824;4.682;2023-03-05T13:37:19;8.70;99.90
37998;DHT22;24079;51.824;4.682;2023-03-05T13:39:54;8.70;99.90
37998;DHT22;24079;51.824;4.682;2023-03-05T13:42:33;8.90;99.90
37998;DHT22;24079;51.824;4.682;2023-03-05T13:45:03;8.80;99.90
37998;DHT22;24079;51.824;4.682;2023-03-05T13:47:32;8.70;99.90
37998;DHT22;24079;51.824;4.682;2023-03-05T13:50:01;8.60;99.90
37998;DHT22;24079;51.824;4.682;2023-03-05T13:52:32;8.40;99.90
37998;DHT22;24079;51.824;4.682;2023-03-05T13:54:59;8.10;99.90
37998;DHT22;24079;51.824;4.682;2023-03-05T13:57:45;7.90;99.90
37998;DHT22;24079;51.824;4.682;2023-03-05T14:00:33;7.90;99.90
37998;DHT22;24079;51.824;4.682;2023-03-05T14:05:33;8.10;99.90
37998;DHT22;24079;51.824;4.682;2023-03-05T14:08:00;8.00;99.90
37998;DHT22;24079;51.824;4.682;2023-03-05T14:10:32;8.10;99.90
37998;DHT22;24079;51.824;4.682;2023-03-05T14:13:01;8.30;99.90
37998;DHT22;24079;51.824;4.682;2023-03-05T14:15:31;8.40;99.90
37998;DHT22;24079;51.824;4.682;2023-03-05T14:20:40;8.50;99.90
37998;DHT22;24079;51.824;4.682;2023-03-05T14:23:41;8.50;99.90
37998;DHT22;24079;51.824;4.682;2023-03-05T14:28:36;8.70;99.90
37998;DHT22;24079;51.824;4.682;2023-03-05T14:31:03;8.60;99.90
37998;DHT22;24079;51.824;4.682;2023-03-05T14:33:38;8.60;99.90
37998;DHT22;24079;51.824;4.682;2023-03-05T14:36:06;8.50;99.90
37998;DHT22;24079;51.824;4.682;2023-03-05T14:38:34;8.30;99.90
37998;DHT22;24079;51.824;4.682;2023-03-05T14:41:26;8.10;99.90
37998;DHT22;24079;51.824;4.682;2023-03-05T14:43:55;7.90;99.90
37998;DHT22;24079;51.824;4.682;2023-03-05T14:46:21;7.90;99.90
37998;DHT22;24079;51.824;4.682;2023-03-05T14:48:47;7.90;99.90
37998;DHT22;24079;51.824;4.682;2023-03-05T14:51:13;8.00;99.90
37998;DHT22;24079;51.824;4.682;2023-03-05T14:53:44;8.00;99.90
37998;DHT22;24079;51.824;4.682;2023-03-05T14:56:30;8.00;99.90
37998;DHT22;24079;51.824;4.682;2023-03-05T14:58:57;7.90;99.90
37998;DHT22;24079;51.824;4.682;2023-03-05T15:01:23;7.90;99.90
37998;DHT22;24079;51.824;4.682;2023-03-05T15:03:50;8.00;99.90
37998;DHT22;24079;51.824;4.682;2023-03-05T15:06:26;8.00;99.90
37998;DHT22;24079;51.824;4.682;2023-03-05T15:08:54;8.00;99.90
37998;DHT22;24079;51.824;4.682;2023-03-05T15:11:20;8.00;99.90
37998;DHT22;24079;51.824;4.682;2023-03-05T15:13:47;8.00;99.90
37998;DHT22;24079;51.824;4.682;2023-03-05T15:16:16;7.90;99.90
37998;DHT22;24079;51.824;4.682;2023-03-05T15:18:42;7.70;99.90
37998;DHT22;24079;51.824;4.682;2023-03-05T15:21:09;7.70;99.90
37998;DHT22;24079;51.824;4.682;2023-03-05T15:23:35;7.80;99.90
37998;DHT22;24079;51.824;4.682;2023-03-05T15:26:08;7.80;99.90
37998;DHT22;24079;51.824;4.682;2023-03-05T15:28:36;7.90;99.90
37998;DHT22;24079;51.824;4.682;2023-03-05T15:31:04;7.90;99.90
37998;DHT22;24079;51.824;4.682;2023-03-05T15:33:30;7.80;99.90
37998;DHT22;24079;51.824;4.682;2023-03-05T15:35:57;7.90;99.90
37998;DHT22;24079;51.824;4.682;2023-03-05T15:38:24;7.70;99.90
37998;DHT22;24079;51.824;4.682;2023-03-05T15:40:50;7.60;99.90
37998;DHT22;24079;51.824;4.682;2023-03-05T15:43:17;7.50;99.90
37998;DHT22;24079;51.824;4.682;2023-03-05T15:45:44;7.50;99.90
37998;DHT22;24079;51.824;4.682;2023-03-05T15:48:10;7.40;99.90
37998;DHT22;24079;51.824;4.682;2023-03-05T15:50:39;7.30;99.90
37998;DHT22;24079;51.824;4.682;2023-03-05T15:53:07;7.30;99.90
37998;DHT22;24079;51.824;4.682;2023-03-05T15:55:39;7.20;99.90
37998;DHT22;24079;51.824;4.682;2023-03-05T15:58:06;7.20;99.90
37998;DHT22;24079;51.824;4.682;2023-03-05T16:00:34;7.20;99.90
37998;DHT22;24079;51.824;4.682;2023-03-05T16:03:02;7.10;99.90
37998;DHT22;24079;51.824;4.682;2023-03-05T16:05:28;7.10;99.90
37998;DHT22;24079;51.824;4.682;2023-03-05T16:07:54;7.00;99.90
37998;DHT22;24079;51.824;4.682;2023-03-05T16:10:23;6.90;99.90
37998;DHT22;24079;51.824;4.682;2023-03-05T16:12:53;6.80;99.90
37998;DHT22;24079;51.824;4.682;2023-03-05T16:15:20;6.70;99.90
37998;DHT22;24079;51.824;4.682;2023-03-05T16:17:50;6.60;99.90
37998;DHT22;24079;51.824;4.682;2023-03-05T16:20:18;6.50;99.90
37998;DHT22;24079;51.824;4.682;2023-03-05T16:22:45;6.50;99.90
37998;DHT22;24079;51.824;4.682;2023-03-05T16:25:11;6.60;99.90
37998;DHT22;24079;51.824;4.682;2023-03-05T16:27:37;6.60;99.90
37998;DHT22;24079;51.824;4.682;2023-03-05T16:30:04;6.50;99.90
37998;DHT22;24079;51.824;4.682;2023-03-05T16:32:30;6.50;99.90
37998;DHT22;24079;51.824;4.682;2023-03-05T16:34:57;6.60;99.90
37998;DHT22;24079;51.824;4.682;2023-03-05T16:37:24;6.60;99.90
37998;DHT22;24079;51.824;4.682;2023-03-05T16:39:50;6.60;99.90
37998;DHT22;24079;51.824;4.682;2023-03-05T16:42:16;6.60;99.90
37998;DHT22;24079;51.824;4.682;2023-03-05T16:44:43;6.60;99.90
37998;DHT22;24079;51.824;4.682;2023-03-05T16:47:10;6.50;99.90
37998;DHT22;24079;51.824;4.682;2023-03-05T16:49:38;6.50;99.90
37998;DHT22;24079;51.824;4.682;2023-03-05T16:52:05;6.50;99.90
37998;DHT22;24079;51.824;4.682;2023-03-05T16:54:32;6.50;99.90
37998;DHT22;24079;51.824;4.682;2023-03-05T16:56:59;6.40;99.90
37998;DHT22;24079;51.824;4.682;2023-03-05T16:59:26;6.70;99.90
37998;DHT22;24079;51.824;4.682;2023-03-05T17:01:52;6.80;99.90
37998;DHT22;24079;51.824;4.682;2023-03-05T17:04:19;6.80;99.90
37998;DHT22;24079;51.824;4.682;2023-03-05T17:06:46;6.70;99.90
37998;DHT22;24079;51.824;4.682;2023-03-05T17:09:14;6.60;99.90
37998;DHT22;24079;51.824;4.682;2023-03-05T17:11:39;6.50;99.90
37998;DHT22;24079;51.824;4.682;2023-03-05T17:14:05;6.40;99.90